Ana Sayfa
METAR-TAF:

METAR-TAF

Havaalanları :

Kastamonu Havalimanı

Kastamonu, Türkiye

Enlem: 41-19-01N, Boylam: 33-47-46E, yükseklik: 1073 m

Güncel hava durumu gözlemi

Rapor saat 07:50 UTC de 58 dakika önce yapıldı.
Rüzgar güneydoğudan 8 kt
Sıcaklık 11°C
Nem 82%
Basınç 1021 hPa
Görüş mesafesi: 9000 m
2500 ft yükseklikte parçalı bulutlu
9000 ft yükseklikte parçalı çok bulutlu

METAR: LTAL 220750Z 13008KT 9000 SCT025 BKN090 11/08 Q1021

Saat: 11:48 (08:48 UTC)

Tahmin

Rapor saat 07:40 UTC de 1 saat ve 8 dakika önce yapıldı.
Ayın 22'si saat 09 UTC'den ayın 22'si saat 18 UTC'ye kadar geçerli Tahmin
Rüzgar değişken yönden 2 kt
Görüş mesafesi 10 km veya daha fazla
2700 ft yükseklikte parçalı bulutlu
10000 ft yükseklikte parçalı çok bulutlu

TAF: LTAL 220740Z 2209/2218 VRB02KT 9999 SCT027 BKN100

4.000'den fazla havaalanı için hava durumu gözlemleri ve tahminleri (METAR ve TAF raporları).

Kullanılabilir istasyonlar harita üzerinde sarı ve kırmızı noktalarla gösterilir.

İstasyonun adını görmek için fareyi noktanın üzerinde gezdirin.

Sonrasında hava gözlem ve tahminlerini görmek için tıklayın.

Haritayı değiştirmek için: yaklaştırmak için siyah artı işaretli yeşil düğmeye ve uzaklaştırmak için de eksi işaretli düğmeye hızla tıklayın; bitişik haritalar için yeşil okları kullanın.


METAR-TAF: